createdAt,value
2022-08-19T00:01:28.967Z,28.10
2022-08-19T00:03:58.940Z,28.10
2022-08-19T00:06:26.633Z,28.00
2022-08-19T00:08:54.298Z,28.00
2022-08-19T00:11:25.998Z,28.00
2022-08-19T00:13:53.976Z,28.00
2022-08-19T00:16:26.362Z,28.00
2022-08-19T00:18:54.613Z,28.00
2022-08-19T00:21:22.314Z,28.00
2022-08-19T00:23:49.988Z,28.00
2022-08-19T00:26:17.675Z,28.00
2022-08-19T00:28:45.342Z,28.00
2022-08-19T00:31:13.020Z,28.00
2022-08-19T00:33:42.032Z,28.00
2022-08-19T00:36:10.268Z,28.00
2022-08-19T00:38:38.544Z,28.00
2022-08-19T00:41:06.828Z,28.00
2022-08-19T00:43:34.548Z,28.00
2022-08-19T00:46:03.812Z,28.00
2022-08-19T00:48:31.518Z,28.00
2022-08-19T00:51:00.720Z,28.00
2022-08-19T00:53:29.463Z,28.00
2022-08-19T00:55:58.224Z,28.00
2022-08-19T00:58:28.314Z,28.00
2022-08-19T01:00:56.069Z,28.00
2022-08-19T01:03:24.021Z,28.00
2022-08-19T01:05:52.439Z,28.00
2022-08-19T01:08:21.572Z,28.00
2022-08-19T01:10:52.331Z,28.00
2022-08-19T01:13:21.024Z,28.00
2022-08-19T01:15:50.532Z,28.00
2022-08-19T01:18:19.016Z,28.00
2022-08-19T01:20:46.992Z,27.90
2022-08-19T01:23:16.377Z,28.00
2022-08-19T01:25:47.296Z,28.00
2022-08-19T01:28:33.576Z,28.00
2022-08-19T01:31:08.257Z,28.00
2022-08-19T01:33:36.075Z,27.90
2022-08-19T01:36:08.574Z,27.90
2022-08-19T01:38:44.047Z,28.00
2022-08-19T01:41:12.382Z,27.90
2022-08-19T01:44:09.947Z,28.00
2022-08-19T01:46:27.772Z,28.00
2022-08-19T01:48:55.463Z,27.90
2022-08-19T01:51:23.151Z,27.90
2022-08-19T01:53:52.624Z,27.90
2022-08-19T01:56:20.671Z,27.90
2022-08-19T01:58:51.647Z,27.90
2022-08-19T02:01:19.541Z,27.90
2022-08-19T02:03:47.662Z,27.90
2022-08-19T02:06:17.849Z,27.90
2022-08-19T02:08:48.609Z,27.90
2022-08-19T02:11:24.443Z,27.90
2022-08-19T02:13:52.156Z,27.90
2022-08-19T02:16:20.280Z,27.90
2022-08-19T02:18:49.391Z,27.90
2022-08-19T02:21:17.295Z,27.90
2022-08-19T02:23:45.067Z,27.90
2022-08-19T02:26:13.267Z,27.90
2022-08-19T02:28:42.496Z,27.90
2022-08-19T02:31:11.174Z,27.90
2022-08-19T02:33:40.195Z,27.90
2022-08-19T02:36:08.743Z,27.90
2022-08-19T02:38:35.666Z,27.90
2022-08-19T02:41:05.296Z,27.90
2022-08-19T02:43:36.630Z,27.90
2022-08-19T02:46:13.582Z,27.90
2022-08-19T02:48:41.328Z,27.90
2022-08-19T02:51:09.050Z,27.90
2022-08-19T02:53:36.751Z,27.90
2022-08-19T02:56:08.137Z,27.80
2022-08-19T02:58:35.844Z,27.90
2022-08-19T03:01:03.634Z,27.80
2022-08-19T03:03:32.846Z,27.90
2022-08-19T03:06:08.294Z,27.90
2022-08-19T03:08:36.031Z,27.90
2022-08-19T03:11:03.747Z,27.90
2022-08-19T03:13:31.416Z,27.90
2022-08-19T03:15:59.123Z,27.90
2022-08-19T03:18:27.440Z,27.80
2022-08-19T03:20:57.007Z,27.80
2022-08-19T03:23:24.893Z,27.80
2022-08-19T03:26:03.981Z,27.90
2022-08-19T03:28:42.438Z,27.90
2022-08-19T03:31:41.604Z,27.80
2022-08-19T03:34:05.402Z,27.80
2022-08-19T03:36:37.212Z,27.80
2022-08-19T03:39:05.312Z,27.90
2022-08-19T03:41:34.235Z,27.80
2022-08-19T03:44:12.617Z,27.80
2022-08-19T03:46:46.154Z,27.80
2022-08-19T03:49:13.941Z,27.80
2022-08-19T03:51:43.852Z,27.80
2022-08-19T03:54:13.669Z,27.80
2022-08-19T03:56:41.768Z,27.80
2022-08-19T03:59:11.655Z,27.80
2022-08-19T04:01:39.445Z,27.80
2022-08-19T04:04:07.127Z,27.80
2022-08-19T04:06:35.993Z,27.80
2022-08-19T04:09:09.493Z,27.80
2022-08-19T04:11:43.470Z,27.80
2022-08-19T04:14:12.780Z,27.80
2022-08-19T04:16:40.444Z,27.80
2022-08-19T04:19:08.322Z,27.80
2022-08-19T04:21:36.169Z,27.80
2022-08-19T04:24:04.480Z,27.80
2022-08-19T04:26:35.480Z,27.80
2022-08-19T04:29:03.610Z,27.80
2022-08-19T04:31:33.476Z,27.80
2022-08-19T04:34:02.380Z,27.80
2022-08-19T04:36:31.282Z,27.80
2022-08-19T04:39:00.196Z,27.80
2022-08-19T04:41:45.529Z,27.80
2022-08-19T04:44:14.738Z,27.80
2022-08-19T04:46:51.201Z,27.80
2022-08-19T04:49:20.680Z,27.80
2022-08-19T04:51:49.072Z,27.80
2022-08-19T04:54:23.947Z,27.80
2022-08-19T04:57:06.954Z,27.80
2022-08-19T04:59:36.044Z,27.70
2022-08-19T05:02:04.059Z,27.80
2022-08-19T05:04:32.730Z,27.80
2022-08-19T05:07:01.637Z,27.70
2022-08-19T05:09:53.313Z,27.80
2022-08-19T05:12:17.529Z,27.70
2022-08-19T05:14:48.165Z,27.70
2022-08-19T05:17:36.210Z,27.80
2022-08-19T05:20:22.147Z,27.70
2022-08-19T05:22:49.974Z,27.70
2022-08-19T05:25:19.808Z,27.70
2022-08-19T05:27:47.538Z,27.70
2022-08-19T05:30:16.652Z,27.70
2022-08-19T05:32:44.589Z,27.70
2022-08-19T05:35:12.437Z,27.70
2022-08-19T05:37:41.098Z,27.70
2022-08-19T05:40:10.338Z,27.70
2022-08-19T05:42:38.294Z,27.70
2022-08-19T05:45:06.782Z,27.60
2022-08-19T05:47:36.471Z,27.70
2022-08-19T05:50:10.324Z,27.70
2022-08-19T05:52:43.797Z,27.70
2022-08-19T05:55:17.752Z,27.70
2022-08-19T05:57:45.432Z,27.70
2022-08-19T06:00:14.807Z,27.70
2022-08-19T06:02:43.859Z,27.70
2022-08-19T06:05:12.275Z,27.70
2022-08-19T06:07:40.618Z,27.70
2022-08-19T06:10:23.495Z,27.70
2022-08-19T06:12:51.198Z,27.70
2022-08-19T06:15:18.903Z,27.70
2022-08-19T06:17:47.986Z,27.70
2022-08-19T06:20:16.309Z,27.70
2022-08-19T06:22:44.828Z,27.70
2022-08-19T06:25:12.660Z,27.70
2022-08-19T06:27:58.635Z,27.70
2022-08-19T06:30:28.410Z,27.70
2022-08-19T06:32:57.424Z,27.70
2022-08-19T06:35:26.248Z,27.70
2022-08-19T06:37:54.782Z,27.70
2022-08-19T06:40:23.079Z,27.70
2022-08-19T06:42:55.025Z,27.70
2022-08-19T06:45:24.544Z,27.70
2022-08-19T06:47:56.737Z,27.70
2022-08-19T06:50:25.963Z,27.70
2022-08-19T06:52:55.142Z,27.70
2022-08-19T06:55:22.999Z,27.70
2022-08-19T06:57:54.551Z,27.70
2022-08-19T07:00:22.895Z,27.70
2022-08-19T07:02:53.369Z,27.70
2022-08-19T07:05:25.118Z,27.70
2022-08-19T07:07:53.319Z,27.70
2022-08-19T07:10:26.072Z,27.70
2022-08-19T07:12:54.717Z,27.60
2022-08-19T07:15:24.175Z,27.70
2022-08-19T07:17:52.712Z,27.70
2022-08-19T07:20:20.905Z,27.70
2022-08-19T07:22:50.211Z,27.70
2022-08-19T07:25:19.484Z,27.70
2022-08-19T07:27:54.232Z,27.70
2022-08-19T07:30:24.053Z,27.70
2022-08-19T07:32:54.534Z,27.70
2022-08-19T07:35:22.556Z,27.70
2022-08-19T07:37:51.822Z,27.70
2022-08-19T07:40:19.631Z,27.70
2022-08-19T07:42:47.483Z,27.70
2022-08-19T07:45:16.905Z,27.70
2022-08-19T07:47:49.616Z,27.70
2022-08-19T07:50:20.308Z,27.70
2022-08-19T07:52:50.343Z,27.70
2022-08-19T07:55:40.741Z,27.70
2022-08-19T07:58:10.823Z,27.70
2022-08-19T08:00:38.640Z,27.70
2022-08-19T08:03:06.474Z,27.60
2022-08-19T08:05:52.044Z,27.60
2022-08-19T08:08:37.499Z,27.70
2022-08-19T08:11:15.409Z,27.60
2022-08-19T08:13:44.059Z,27.60
2022-08-19T08:16:14.386Z,27.60
2022-08-19T08:18:50.735Z,27.60
2022-08-19T08:21:21.088Z,27.60
2022-08-19T08:23:49.099Z,27.60
2022-08-19T08:26:19.301Z,27.70
2022-08-19T08:28:49.578Z,27.70
2022-08-19T08:31:19.449Z,27.60
2022-08-19T08:33:48.139Z,27.60
2022-08-19T08:36:16.088Z,27.60
2022-08-19T08:38:46.259Z,27.60
2022-08-19T08:41:21.192Z,27.60
2022-08-19T08:43:50.099Z,27.60
2022-08-19T08:46:32.297Z,27.60
2022-08-19T08:49:04.609Z,27.60
2022-08-19T08:54:14.137Z,27.60
2022-08-19T08:56:43.872Z,27.60
2022-08-19T08:59:14.596Z,27.60
2022-08-19T09:01:42.369Z,27.60
2022-08-19T09:04:10.136Z,27.60
2022-08-19T09:06:40.974Z,27.60
2022-08-19T09:09:15.136Z,27.60
2022-08-19T09:11:51.367Z,27.60
2022-08-19T09:14:50.166Z,27.70
2022-08-19T09:17:19.498Z,27.70
2022-08-19T09:19:54.884Z,27.60
2022-08-19T09:22:25.440Z,27.70
2022-08-19T09:24:54.184Z,27.60
2022-08-19T09:27:42.376Z,27.70
2022-08-19T09:30:12.945Z,27.70
2022-08-19T09:32:43.213Z,27.60
2022-08-19T09:35:11.225Z,27.60
2022-08-19T09:37:40.343Z,27.60
2022-08-19T09:40:09.343Z,27.60
2022-08-19T09:42:50.017Z,27.60
2022-08-19T09:45:22.390Z,27.60
2022-08-19T09:47:52.041Z,27.60
2022-08-19T09:50:22.152Z,27.60
2022-08-19T09:52:55.083Z,27.60
2022-08-19T09:55:31.501Z,27.60
2022-08-19T09:58:02.391Z,27.60
2022-08-19T10:00:31.614Z,27.60
2022-08-19T10:02:59.329Z,27.60
2022-08-19T10:05:44.693Z,27.60
2022-08-19T10:08:16.680Z,27.60
2022-08-19T10:10:46.673Z,27.60
2022-08-19T10:13:19.569Z,27.70
2022-08-19T10:15:49.377Z,27.60
2022-08-19T10:18:18.609Z,27.60
2022-08-19T10:20:51.661Z,27.70
2022-08-19T10:23:20.002Z,27.70
2022-08-19T10:25:48.304Z,27.70
2022-08-19T10:28:19.325Z,27.70
2022-08-19T10:30:47.746Z,27.70
2022-08-19T10:33:16.088Z,27.80
2022-08-19T10:36:04.241Z,27.70
2022-08-19T10:38:33.051Z,27.70
2022-08-19T10:41:07.808Z,27.70
2022-08-19T10:43:39.099Z,27.70
2022-08-19T10:46:14.221Z,27.70
2022-08-19T10:48:44.602Z,27.70
2022-08-19T10:51:29.749Z,27.70
2022-08-19T10:53:57.724Z,27.70
2022-08-19T10:56:43.153Z,27.70
2022-08-19T10:59:13.545Z,27.70
2022-08-19T11:01:41.599Z,27.70
2022-08-19T11:04:12.043Z,27.80
2022-08-19T11:06:42.390Z,27.80
2022-08-19T11:09:10.079Z,27.80
2022-08-19T11:11:41.552Z,27.70
2022-08-19T11:14:10.323Z,27.80
2022-08-19T11:16:40.046Z,27.70
2022-08-19T11:19:09.079Z,27.70
2022-08-19T11:21:37.939Z,27.70
2022-08-19T11:24:07.676Z,27.70
2022-08-19T11:26:36.108Z,27.70
2022-08-19T11:29:03.963Z,27.70
2022-08-19T11:31:32.818Z,27.70
2022-08-19T11:34:04.020Z,27.70
2022-08-19T11:36:32.736Z,27.70
2022-08-19T11:39:00.440Z,27.60
2022-08-19T11:41:28.282Z,27.60
2022-08-19T11:43:56.278Z,27.60
2022-08-19T11:46:24.707Z,27.60
2022-08-19T11:48:52.498Z,27.60
2022-08-19T11:51:23.373Z,27.50
2022-08-19T11:53:51.553Z,27.40
2022-08-19T11:56:19.553Z,27.30
2022-08-19T11:58:47.315Z,27.20
2022-08-19T12:01:16.826Z,27.20
2022-08-19T12:03:44.760Z,27.10
2022-08-19T12:06:14.692Z,27.10
2022-08-19T12:08:44.126Z,27.00
2022-08-19T12:11:12.059Z,27.00
2022-08-19T12:13:39.876Z,26.90
2022-08-19T12:16:13.263Z,26.90
2022-08-19T12:18:42.371Z,26.90
2022-08-19T12:21:11.833Z,26.70
2022-08-19T12:23:39.592Z,26.70
2022-08-19T12:26:08.791Z,26.80
2022-08-19T12:28:36.477Z,26.70
2022-08-19T12:31:04.235Z,26.70
2022-08-19T12:33:32.972Z,26.70
2022-08-19T12:36:02.407Z,26.80
2022-08-19T12:38:30.101Z,26.70
2022-08-19T12:41:00.297Z,26.80
2022-08-19T12:43:31.274Z,26.80
2022-08-19T12:45:59.021Z,26.80
2022-08-19T12:48:33.351Z,26.80
2022-08-19T12:51:03.552Z,26.80
2022-08-19T12:53:31.276Z,26.80
2022-08-19T12:55:59.122Z,26.80
2022-08-19T12:58:27.550Z,26.70
2022-08-19T13:00:56.708Z,26.70
2022-08-19T13:03:29.896Z,26.80
2022-08-19T13:05:57.580Z,26.70
2022-08-19T13:08:25.327Z,26.80
2022-08-19T13:10:53.013Z,26.80
2022-08-19T13:13:20.806Z,26.80
2022-08-19T13:15:48.538Z,26.80
2022-08-19T13:18:17.741Z,26.80
2022-08-19T13:20:52.591Z,26.80
2022-08-19T13:23:20.817Z,26.80
2022-08-19T13:25:57.789Z,26.80
2022-08-19T13:28:29.121Z,26.80
2022-08-19T13:31:14.921Z,26.80
2022-08-19T13:33:43.992Z,26.80
2022-08-19T13:36:11.695Z,26.80
2022-08-19T13:38:40.044Z,26.80
2022-08-19T13:41:12.141Z,26.90
2022-08-19T13:43:42.426Z,26.80
2022-08-19T13:46:10.868Z,26.90
2022-08-19T13:48:38.560Z,26.80
2022-08-19T13:51:11.591Z,26.80
2022-08-19T13:53:39.544Z,26.80
2022-08-19T13:56:07.939Z,26.90
2022-08-19T13:58:35.612Z,26.90
2022-08-19T14:01:03.393Z,27.00
2022-08-19T14:03:31.160Z,27.10
2022-08-19T14:05:58.877Z,27.10
2022-08-19T14:08:28.808Z,27.20
2022-08-19T14:10:56.547Z,27.30
2022-08-19T14:13:24.688Z,27.30
2022-08-19T14:15:52.919Z,27.30
2022-08-19T14:18:20.747Z,27.40
2022-08-19T14:20:48.445Z,27.40
2022-08-19T14:23:16.124Z,27.30
2022-08-19T14:25:45.443Z,27.30
2022-08-19T14:28:13.142Z,27.40
2022-08-19T14:30:40.960Z,27.40
2022-08-19T14:33:09.285Z,27.50
2022-08-19T14:35:37.212Z,27.50
2022-08-19T14:38:05.378Z,27.50
2022-08-19T14:40:33.391Z,27.40
2022-08-19T14:43:05.003Z,27.50
2022-08-19T14:45:33.221Z,27.60
2022-08-19T14:48:01.592Z,27.60
2022-08-19T14:50:29.684Z,27.60
2022-08-19T14:53:00.708Z,27.60
2022-08-19T14:55:31.339Z,27.60
2022-08-19T14:57:59.203Z,27.50
2022-08-19T15:00:29.960Z,27.50
2022-08-19T15:02:57.689Z,27.50
2022-08-19T15:05:25.387Z,27.60
2022-08-19T15:07:55.224Z,27.60
2022-08-19T15:10:24.452Z,27.60
2022-08-19T15:12:52.501Z,27.70
2022-08-19T15:15:20.687Z,27.60
2022-08-19T15:17:49.712Z,27.60
2022-08-19T15:20:18.631Z,27.50
2022-08-19T15:22:46.417Z,27.50
2022-08-19T15:25:16.289Z,27.50
2022-08-19T15:27:44.321Z,27.50
2022-08-19T15:30:13.160Z,27.50
2022-08-19T15:32:41.178Z,27.40
2022-08-19T15:35:10.340Z,27.40
2022-08-19T15:37:38.114Z,27.40
2022-08-19T15:40:07.472Z,27.50
2022-08-19T15:42:35.794Z,27.50
2022-08-19T15:45:03.547Z,27.50
2022-08-19T15:47:34.612Z,27.40
2022-08-19T15:50:06.380Z,27.40
2022-08-19T15:52:49.449Z,27.40
2022-08-19T15:55:32.512Z,27.40
2022-08-19T15:58:27.747Z,27.40
2022-08-19T16:01:15.596Z,27.40
2022-08-19T16:04:01.436Z,27.40
2022-08-19T16:06:29.580Z,27.40
2022-08-19T16:08:59.953Z,27.40
2022-08-19T16:11:30.296Z,27.40
2022-08-19T16:13:59.102Z,27.40
2022-08-19T16:16:31.038Z,27.40
2022-08-19T16:19:02.578Z,27.40
2022-08-19T16:21:33.117Z,27.50
2022-08-19T16:24:04.144Z,27.60
2022-08-19T16:26:31.880Z,27.60
2022-08-19T16:28:59.804Z,27.70
2022-08-19T16:31:27.735Z,27.70
2022-08-19T16:33:55.731Z,27.70
2022-08-19T16:36:24.614Z,27.70
2022-08-19T16:38:53.117Z,27.70
2022-08-19T16:41:22.890Z,27.70
2022-08-19T16:43:52.542Z,27.80
2022-08-19T16:46:20.347Z,27.80
2022-08-19T16:48:51.327Z,27.80
2022-08-19T16:51:19.019Z,27.80
2022-08-19T16:53:46.809Z,27.80
2022-08-19T16:56:14.486Z,27.80
2022-08-19T16:58:44.185Z,27.80
2022-08-19T17:01:11.967Z,27.80
2022-08-19T17:03:39.884Z,27.80
2022-08-19T17:06:18.405Z,27.70
2022-08-19T17:08:49.377Z,27.80
2022-08-19T17:11:18.831Z,27.70
2022-08-19T17:13:48.482Z,27.80
2022-08-19T17:16:16.813Z,27.80
2022-08-19T17:18:44.966Z,27.70
2022-08-19T17:21:13.371Z,27.80
2022-08-19T17:23:43.632Z,27.70
2022-08-19T17:26:16.920Z,27.80
2022-08-19T17:28:48.992Z,27.70
2022-08-19T17:31:16.781Z,27.60
2022-08-19T17:33:48.474Z,27.60
2022-08-19T17:36:17.172Z,27.60
2022-08-19T17:38:44.929Z,27.50
2022-08-19T17:41:13.231Z,27.50
2022-08-19T17:43:43.777Z,27.40
2022-08-19T17:46:17.759Z,27.50
2022-08-19T17:48:51.411Z,27.50
2022-08-19T17:51:22.011Z,27.50
2022-08-19T17:53:50.568Z,27.50
2022-08-19T17:56:18.308Z,27.50
2022-08-19T17:58:49.661Z,27.50
2022-08-19T18:01:44.083Z,27.50
2022-08-19T18:04:18.739Z,27.50
2022-08-19T18:06:53.331Z,27.50
2022-08-19T18:09:23.824Z,27.50
2022-08-19T18:11:53.659Z,27.50
2022-08-19T18:14:28.132Z,27.50
2022-08-19T18:17:02.172Z,27.50
2022-08-19T18:19:40.614Z,27.50
2022-08-19T18:22:10.730Z,27.50
2022-08-19T18:24:39.014Z,27.50
2022-08-19T18:27:06.999Z,27.50
2022-08-19T18:29:38.291Z,27.50
2022-08-19T18:32:12.319Z,27.50
2022-08-19T18:34:40.781Z,27.50
2022-08-19T18:37:08.463Z,27.50
2022-08-19T18:39:54.115Z,27.50
2022-08-19T18:42:39.359Z,27.50
2022-08-19T18:45:25.262Z,27.50
2022-08-19T18:48:27.081Z,27.50
2022-08-19T18:50:56.873Z,27.50
2022-08-19T18:53:24.658Z,27.50
2022-08-19T18:55:55.088Z,27.40
2022-08-19T18:58:26.189Z,27.50
2022-08-19T19:00:55.773Z,27.50
2022-08-19T19:03:24.892Z,27.50
2022-08-19T19:05:53.020Z,27.50
2022-08-19T19:08:20.858Z,27.50
2022-08-19T19:10:55.565Z,27.50
2022-08-19T19:13:23.252Z,27.50
2022-08-19T19:15:51.558Z,27.50
2022-08-19T19:18:19.247Z,27.50
2022-08-19T19:20:48.284Z,27.50
2022-08-19T19:23:15.982Z,27.50
2022-08-19T19:25:50.676Z,27.50
2022-08-19T19:28:28.047Z,27.50
2022-08-19T19:30:57.443Z,27.50
2022-08-19T19:33:25.192Z,27.50
2022-08-19T19:35:54.168Z,27.50
2022-08-19T19:38:21.848Z,27.50
2022-08-19T19:40:49.556Z,27.50
2022-08-19T19:43:18.157Z,27.50
2022-08-19T19:45:46.880Z,27.50
2022-08-19T19:48:16.162Z,27.60
2022-08-19T19:50:44.068Z,27.60
2022-08-19T19:53:15.015Z,27.60
2022-08-19T19:55:42.826Z,27.70
2022-08-19T19:58:10.516Z,27.70
2022-08-19T20:00:38.196Z,27.70
2022-08-19T20:03:06.732Z,27.80
2022-08-19T20:05:34.453Z,27.80
2022-08-19T20:08:28.052Z,27.90
2022-08-19T20:10:57.520Z,27.90
2022-08-19T20:13:25.212Z,27.90
2022-08-19T20:15:52.897Z,28.00
2022-08-19T20:18:20.914Z,28.00
2022-08-19T20:20:49.983Z,28.00
2022-08-19T20:23:17.690Z,28.10
2022-08-19T20:25:45.381Z,28.10
2022-08-19T20:28:14.560Z,28.20
2022-08-19T20:30:46.329Z,28.20
2022-08-19T20:33:14.529Z,28.20
2022-08-19T20:35:43.258Z,28.20
2022-08-19T20:38:10.968Z,28.30
2022-08-19T20:40:39.210Z,28.30
2022-08-19T20:43:09.113Z,28.30
2022-08-19T20:45:38.228Z,28.30
2022-08-19T20:48:07.021Z,28.40
2022-08-19T20:50:35.801Z,28.40
2022-08-19T20:53:09.243Z,28.40
2022-08-19T20:55:37.064Z,28.40
2022-08-19T20:58:04.820Z,28.50
2022-08-19T21:00:32.703Z,28.50
2022-08-19T21:03:01.840Z,28.50
2022-08-19T21:05:30.692Z,28.60
2022-08-19T21:07:58.739Z,28.60
2022-08-19T21:10:27.425Z,28.60
2022-08-19T21:12:55.414Z,28.60
2022-08-19T21:15:24.512Z,28.70
2022-08-19T21:17:52.363Z,28.70
2022-08-19T21:20:21.828Z,28.80
2022-08-19T21:22:49.586Z,28.90
2022-08-19T21:25:17.460Z,28.90
2022-08-19T21:27:45.155Z,28.90
2022-08-19T21:30:14.046Z,28.90
2022-08-19T21:32:41.781Z,29.00
2022-08-19T21:35:09.661Z,29.00
2022-08-19T21:37:38.769Z,29.00
2022-08-19T21:40:07.571Z,29.10
2022-08-19T21:42:35.290Z,29.20
2022-08-19T21:45:03.517Z,29.20
2022-08-19T21:47:31.263Z,29.20
2022-08-19T21:49:58.996Z,29.30
2022-08-19T21:52:26.915Z,29.30
2022-08-19T21:54:56.213Z,29.40
2022-08-19T21:57:24.494Z,29.40
2022-08-19T21:59:52.544Z,29.40
2022-08-19T22:02:21.591Z,29.50
2022-08-19T22:04:49.814Z,29.60
2022-08-19T22:07:17.593Z,29.60
2022-08-19T22:09:45.551Z,29.60
2022-08-19T22:12:24.814Z,29.70
2022-08-19T22:14:52.756Z,29.80
2022-08-19T22:17:20.721Z,29.80
2022-08-19T22:19:48.443Z,29.90
2022-08-19T22:22:21.110Z,29.90
2022-08-19T22:24:48.889Z,30.00
2022-08-19T22:27:18.021Z,30.00
2022-08-19T22:29:45.723Z,30.00
2022-08-19T22:32:26.756Z,30.10
2022-08-19T22:34:58.341Z,30.20
2022-08-19T22:37:26.234Z,30.20
2022-08-19T22:39:54.058Z,30.20
2022-08-19T22:42:23.119Z,30.30
2022-08-19T22:44:51.442Z,30.40
2022-08-19T22:47:19.293Z,30.40
2022-08-19T22:49:47.026Z,30.50
2022-08-19T22:52:17.595Z,30.50
2022-08-19T22:54:46.590Z,30.60
2022-08-19T22:57:14.316Z,30.70
2022-08-19T22:59:43.387Z,30.70
2022-08-19T23:02:11.820Z,30.80
2022-08-19T23:04:39.554Z,30.80
2022-08-19T23:07:07.582Z,30.80
2022-08-19T23:09:35.420Z,30.90
2022-08-19T23:12:04.978Z,31.00
2022-08-19T23:14:32.694Z,31.00
2022-08-19T23:17:02.313Z,31.10
2022-08-19T23:19:30.474Z,31.20
2022-08-19T23:21:58.277Z,31.20
2022-08-19T23:24:26.168Z,31.30
2022-08-19T23:27:11.604Z,31.30
2022-08-19T23:29:56.993Z,31.40
2022-08-19T23:32:26.369Z,31.40
2022-08-19T23:34:56.113Z,31.50
2022-08-19T23:37:25.525Z,31.40
2022-08-19T23:39:53.394Z,31.40
2022-08-19T23:42:21.245Z,31.50
2022-08-19T23:44:51.855Z,31.60
2022-08-19T23:47:20.330Z,31.70
2022-08-19T23:49:49.536Z,31.70
2022-08-19T23:52:17.256Z,31.80
2022-08-19T23:54:44.988Z,31.80
2022-08-19T23:57:13.503Z,31.90
2022-08-19T23:59:42.784Z,31.90
